Time;durP1;ratioP1;P1;durP2;ratioP2;P2;SDS_P1;SDS_P2;PMS_P1;PMS_P2;Temp;Humidity;BMP_temperature;BMP_pressure;BME280_temperature;BME280_humidity;BME280_pressure;Samples;Min_cycle;Max_cycle;Signal;HPM_P1;HPM_P2
2024/01/19 00:00:43;;;;;;;13.23;6.18;;;0.70;99.90;;;0.32;100.00;100800.50;5233926;28;20045;-47
2024/01/19 00:03:15;;;;;;;;;;;0.70;99.90;;;0.30;100.00;100791.81;5242075;28;20055;-46
2024/01/19 00:05:47;;;;;;;12.18;4.97;;;0.70;99.90;;;0.29;100.00;100801.19;5231285;28;19927;-45
2024/01/19 00:08:20;;;;;;;13.82;7.22;;;0.70;99.90;;;0.29;100.00;100801.19;5253609;28;20511;-45
2024/01/19 00:10:54;;;;;;;12.10;6.20;;;0.70;99.90;;;0.30;100.00;100807.19;5228178;28;20048;-45
2024/01/19 00:13:26;;;;;;;18.08;7.05;;;0.70;99.90;;;0.30;100.00;100808.09;5233954;28;20094;-46
2024/01/19 00:15:58;;;;;;;11.93;6.15;;;0.70;99.90;;;0.31;100.00;100808.97;5238342;28;20102;-45
2024/01/19 00:18:31;;;;;;;12.98;6.53;;;0.70;99.90;;;0.33;100.00;100823.72;5241402;28;20061;-45
2024/01/19 00:21:03;;;;;;;12.90;6.70;;;0.70;99.90;;;0.33;100.00;100822.84;5246977;28;20047;-47
2024/01/19 00:23:36;;;;;;;15.80;6.97;;;0.70;99.90;;;0.35;100.00;100826.41;5236976;28;20430;-45
2024/01/19 00:26:11;;;;;;;14.32;6.50;;;0.70;99.90;;;0.35;100.00;100827.28;5245899;28;20036;-46
2024/01/19 00:28:46;;;;;;;15.63;7.18;;;0.70;99.90;;;0.37;100.00;100840.22;5232488;28;20060;-46
2024/01/19 00:31:18;;;;;;;15.80;6.28;;;0.70;99.90;;;0.38;100.00;100839.44;5237721;28;20474;-45
2024/01/19 00:33:51;;;;;;;14.77;7.10;;;0.70;99.90;;;0.38;100.00;100842.91;5243829;28;20057;-45
2024/01/19 00:36:23;;;;;;;17.80;8.52;;;0.70;99.90;;;0.40;100.00;100846.50;5248731;28;20049;-46
2024/01/19 00:38:55;;;;;;;22.77;8.40;;;0.70;99.90;;;0.41;100.00;100845.72;5255381;28;20052;-46
2024/01/19 00:41:29;;;;;;;16.73;6.82;;;0.80;99.90;;;0.44;100.00;100855.28;5240441;28;20036;-45
2024/01/19 00:44:02;;;;;;;17.33;9.35;;;0.80;99.90;;;0.42;100.00;100859.44;5249007;28;20052;-46
2024/01/19 00:46:34;;;;;;;19.38;6.88;;;0.80;99.90;;;0.37;100.00;100859.06;5237692;28;20064;-46
2024/01/19 00:49:07;;;;;;;21.80;6.95;;;0.80;99.90;;;0.33;100.00;100858.75;5239021;28;20507;-45
2024/01/19 00:51:39;;;;;;;21.65;7.13;;;0.70;99.90;;;0.30;100.00;100861.06;5240833;28;20063;-46
2024/01/19 00:54:12;;;;;;;16.40;7.97;;;0.70;99.90;;;0.28;100.00;100866.06;5247815;28;20041;-46
2024/01/19 00:56:45;;;;;;;18.42;7.65;;;0.70;99.90;;;0.29;100.00;100864.41;5232026;28;20045;-46
2024/01/19 00:59:18;;;;;;;18.75;7.63;;;0.60;99.90;;;0.30;100.00;100863.63;5235476;28;20045;-45
2024/01/19 01:01:50;;;;;;;22.63;9.85;;;0.70;99.90;;;0.28;100.00;100865.19;5240924;28;20045;-46
2024/01/19 01:04:22;;;;;;;15.30;8.70;;;0.70;99.90;;;0.29;100.00;100872.09;5242417;28;20051;-45
2024/01/19 01:06:55;;;;;;;16.52;7.97;;;0.70;99.90;;;0.32;100.00;100877.44;5231842;28;20056;-45
2024/01/19 01:09:28;;;;;;;24.65;8.30;;;0.70;99.90;;;0.34;100.00;100881.94;5236467;28;20064;-46
2024/01/19 01:12:02;;;;;;;36.38;8.52;;;0.70;99.90;;;0.38;100.00;100889.06;5234353;28;20064;-45
2024/01/19 01:14:34;;;;;;;14.20;7.40;;;0.70;99.90;;;0.40;100.00;100887.53;5238300;28;20075;-46
2024/01/19 01:17:07;;;;;;;20.02;7.15;;;0.80;99.90;;;0.40;100.00;100884.97;5249833;28;20419;-47
2024/01/19 01:19:39;;;;;;;23.58;6.93;;;0.80;99.90;;;0.44;100.00;100893.75;5256071;28;20531;-45
2024/01/19 01:22:13;;;;;;;25.83;7.32;;;0.80;99.90;;;0.48;100.00;100895.81;5240900;28;20053;-46
2024/01/19 01:24:45;;;;;;;31.40;8.52;;;0.80;99.90;;;0.48;100.00;100895.81;5239546;28;20452;-46
2024/01/19 01:27:19;;;;;;;14.52;7.00;;;0.80;99.90;;;0.50;100.00;100904.50;5233406;28;20491;-45
2024/01/19 01:29:51;;;;;;;16.58;7.95;;;0.80;99.90;;;0.53;100.00;100904.75;5251251;28;20063;-46
2024/01/19 01:32:23;;;;;;;16.08;7.05;;;0.90;99.90;;;0.52;100.00;100902.94;5251525;28;20052;-46
2024/01/19 01:34:56;;;;;;;14.70;7.15;;;0.90;99.90;;;0.52;100.00;100919.25;5247259;28;20053;-46
2024/01/19 01:37:29;;;;;;;17.38;8.23;;;0.90;99.90;;;0.53;100.00;100915.91;5239986;28;20383;-46
2024/01/19 01:40:05;;;;;;;16.67;8.45;;;0.90;99.90;;;0.49;100.00;100924.13;5251319;28;20045;-45
2024/01/19 01:42:38;;;;;;;18.15;6.05;;;0.90;99.90;;;0.48;100.00;100922.34;5233040;28;20056;-46
2024/01/19 01:45:11;;;;;;;14.88;5.63;;;0.80;99.90;;;0.48;100.00;100929.16;5254148;28;20049;-46
2024/01/19 01:47:43;;;;;;;14.20;7.78;;;0.80;99.90;;;0.47;100.00;100929.94;5236415;28;20049;-45
2024/01/19 01:50:16;;;;;;;18.52;8.05;;;0.80;99.90;;;0.47;100.00;100930.81;5249832;28;20106;-45
2024/01/19 01:52:48;;;;;;;16.50;5.93;;;0.80;99.90;;;0.49;100.00;100929.25;5230352;28;20130;-46
2024/01/19 01:55:21;;;;;;;18.25;8.00;;;0.80;99.90;;;0.50;100.00;100936.16;5237590;28;20415;-46
2024/01/19 01:57:55;;;;;;;17.02;7.07;;;0.90;99.90;;;0.50;100.00;100946.44;5240197;28;20052;-45
2024/01/19 02:00:30;;;;;;;14.38;6.57;;;0.90;99.90;;;0.49;100.00;100948.88;5238269;28;20051;-46
2024/01/19 02:03:03;;;;;;;17.42;6.75;;;0.90;99.90;;;0.48;100.00;100947.09;5251691;28;20049;-46
2024/01/19 02:05:35;;;;;;;14.25;6.45;;;0.80;99.90;;;0.44;100.00;100945.94;5239102;28;20486;-46
2024/01/19 02:08:08;;;;;;;15.68;6.53;;;0.80;99.90;;;0.39;100.00;100956.63;5250812;28;20040;-46
2024/01/19 02:10:40;;;;;;;22.02;7.75;;;0.80;99.90;;;0.31;100.00;100960.28;5241260;28;20079;-46
2024/01/19 02:13:14;;;;;;;13.63;6.82;;;0.70;99.90;;;0.22;100.00;100963.91;5251110;28;20052;-46
2024/01/19 02:15:47;;;;;;;16.52;6.32;;;0.60;99.90;;;0.13;100.00;100968.34;5242413;28;20056;-45
2024/01/19 02:18:19;;;;;;;14.70;6.50;;;0.50;99.90;;;0.02;100.00;100969.16;5257365;28;20098;-45
2024/01/19 02:20:52;;;;;;;25.27;9.82;;;0.40;99.90;;;-0.10;100.00;100963.03;5230704;28;20052;-46
2024/01/19 02:23:28;;;;;;;19.73;6.00;;;0.30;99.90;;;-0.20;100.00;100970.75;5251075;28;20130;-46
2024/01/19 02:26:03;;;;;;;20.65;7.10;;;0.20;99.90;;;-0.29;100.00;100970.94;5252854;28;20151;-46
2024/01/19 02:28:35;;;;;;;17.85;6.50;;;0.10;99.90;;;-0.39;100.00;100974.44;5241567;28;20098;-45
2024/01/19 02:31:08;;;;;;;15.77;6.05;;;0.00;99.90;;;-0.48;100.00;100977.88;5242402;28;20059;-45
2024/01/19 02:33:40;;;;;;;12.98;4.40;;;-0.10;99.90;;;-0.59;100.00;100979.56;5242509;28;20048;-46
2024/01/19 02:36:12;;;;;;;13.95;5.63;;;-0.20;99.90;;;-0.67;100.00;100986.63;5242702;28;20052;-46
2024/01/19 02:38:45;;;;;;;14.52;6.70;;;-0.30;99.90;;;-0.70;100.00;100993.19;5242297;28;20532;-44
2024/01/19 02:41:19;;;;;;;12.98;6.43;;;-0.30;99.90;;;-0.77;100.00;100998.56;5254547;28;20037;-45
2024/01/19 02:43:51;;;;;;;14.23;6.15;;;-0.40;99.90;;;-0.86;100.00;100998.66;5243245;28;20056;-47
2024/01/19 02:46:24;;;;;;;17.98;6.07;;;-0.40;99.90;;;-0.93;100.00;101004.06;5243393;28;20041;-46
2024/01/19 02:48:56;;;;;;;16.10;6.65;;;-0.50;99.90;;;-1.02;100.00;100993.97;5241589;28;20419;-46
2024/01/19 02:51:28;;;;;;;13.00;6.07;;;-0.60;99.90;;;-1.09;100.00;100994.22;5250355;28;20041;-46
2024/01/19 02:54:01;;;;;;;12.95;6.22;;;-0.60;99.90;;;-1.17;100.00;100990.13;5238966;28;20060;-45
2024/01/19 02:56:34;;;;;;;13.55;6.97;;;-0.80;99.90;;;-1.25;100.00;100992.00;5241122;28;20073;-46
2024/01/19 02:59:08;;;;;;;12.13;5.70;;;-0.80;99.90;;;-1.28;100.00;100993.44;5252100;28;20041;-45
2024/01/19 03:01:41;;;;;;;14.40;5.60;;;-0.90;99.90;;;-1.33;100.00;101005.81;5236984;28;20542;-46
2024/01/19 03:04:13;;;;;;;10.52;5.03;;;-0.90;99.90;;;-1.42;100.00;101010.16;5250621;28;20044;-45
2024/01/19 03:06:45;;;;;;;11.73;5.28;;;-1.00;99.90;;;-1.52;100.00;101017.78;5240321;28;20044;-45
2024/01/19 03:09:18;;;;;;;13.68;4.45;;;-1.10;99.90;;;-1.64;100.00;101015.06;5253465;28;20499;-45
2024/01/19 03:11:52;;;;;;;12.57;5.72;;;-1.20;99.90;;;-1.71;100.00;101010.19;5241640;28;20454;-45
2024/01/19 03:14:24;;;;;;;14.15;5.35;;;-1.20;99.90;;;-1.76;100.00;101014.00;5251809;28;20052;-46
2024/01/19 03:16:56;;;;;;;5.95;3.17;;;-1.30;99.90;;;-1.82;100.00;101014.41;5230573;28;20060;-46
2024/01/19 03:19:29;;;;;;;12.43;4.90;;;-1.30;99.90;;;-1.87;100.00;101037.75;5244367;28;20380;-47
2024/01/19 03:22:01;;;;;;;7.72;3.33;;;-1.40;99.90;;;-1.99;100.00;101030.78;5255474;28;20057;-45
2024/01/19 03:24:34;;;;;;;8.38;5.40;;;-1.50;99.90;;;-2.03;100.00;101035.50;5243547;28;20411;-45
2024/01/19 03:27:08;;;;;;;8.32;3.58;;;-1.50;99.90;;;-2.07;100.00;101039.44;5237577;28;20066;-46
2024/01/19 03:29:40;;;;;;;5.35;3.95;;;-1.60;99.90;;;-2.11;100.00;101051.81;5251399;28;20053;-46
2024/01/19 03:32:13;;;;;;;7.25;4.53;;;-1.60;99.90;;;-2.14;100.00;101052.44;5251786;28;20049;-45
2024/01/19 03:34:45;;;;;;;7.72;3.58;;;-1.60;99.90;;;-2.11;100.00;101060.34;5256573;28;20052;-44
2024/01/19 03:37:17;;;;;;;6.88;3.55;;;-1.60;99.90;;;-2.07;100.00;101056.44;5255592;28;20719;-46
2024/01/19 03:39:50;;;;;;;9.30;4.18;;;-1.60;99.90;;;-2.05;100.00;101050.69;5235090;28;20538;-45
2024/01/19 03:42:26;;;;;;;8.27;4.00;;;-1.60;99.90;;;-2.00;100.00;101049.44;5238511;28;20044;-45
2024/01/19 03:44:58;;;;;;;7.93;4.82;;;-1.50;99.90;;;-1.91;100.00;101050.25;5243006;28;20051;-45
2024/01/19 03:47:30;;;;;;;7.03;3.70;;;-1.40;99.90;;;-1.84;100.00;101055.88;5239855;28;20044;-46
2024/01/19 03:50:05;;;;;;;9.30;3.78;;;-1.40;99.90;;;-1.77;100.00;101058.22;5253255;28;20055;-45
2024/01/19 03:52:38;;;;;;;10.65;3.85;;;-1.30;99.90;;;-1.69;100.00;101052.16;5234477;28;20049;-45
2024/01/19 03:55:11;;;;;;;10.77;3.17;;;-1.30;99.90;;;-1.64;100.00;101056.88;5252647;28;20057;-45
2024/01/19 03:57:44;;;;;;;12.35;4.93;;;-1.20;99.90;;;-1.55;100.00;101046.56;5234131;28;20045;-46
2024/01/19 04:00:17;;;;;;;13.77;7.00;;;-1.20;99.90;;;-1.47;100.00;101050.66;5247305;28;20402;-46
2024/01/19 04:02:49;;;;;;;14.35;6.18;;;-1.00;99.90;;;-1.41;100.00;101048.63;5253717;28;20057;-45
2024/01/19 04:05:22;;;;;;;11.55;5.38;;;-1.00;99.90;;;-1.35;100.00;101045.72;5246729;28;20056;-46
2024/01/19 04:07:54;;;;;;;12.75;5.03;;;-0.90;99.90;;;-1.28;100.00;101052.25;5239095;28;20043;-45
2024/01/19 04:10:28;;;;;;;6.72;4.63;;;-0.80;99.90;;;-1.22;100.00;101068.13;5239611;28;20049;-45
2024/01/19 04:13:01;;;;;;;7.15;3.83;;;-0.80;99.90;;;-1.19;100.00;101059.03;5251494;28;20060;-46
2024/01/19 04:15:34;;;;;;;11.57;5.97;;;-0.70;99.90;;;-1.14;100.00;101056.88;5236272;28;20060;-45
2024/01/19 04:18:06;;;;;;;14.32;4.75;;;-0.70;99.90;;;-1.09;100.00;101065.84;5255239;28;20099;-45
2024/01/19 04:20:39;;;;;;;12.77;5.97;;;-0.70;99.90;;;-1.06;100.00;101068.66;5231234;28;20057;-44
2024/01/19 04:23:11;;;;;;;11.55;5.93;;;-0.60;99.90;;;-1.04;100.00;101074.81;5233359;28;20057;-46
2024/01/19 04:25:43;;;;;;;12.80;4.45;;;-0.60;99.90;;;-1.01;100.00;101074.16;5242868;28;20332;-46
2024/01/19 04:28:17;;;;;;;9.02;5.00;;;-0.60;99.90;;;-0.99;100.00;101073.53;5254423;28;20049;-45
2024/01/19 04:30:50;;;;;;;15.52;6.32;;;-0.60;99.90;;;-0.98;100.00;101069.31;5231122;28;20056;-45
2024/01/19 04:33:22;;;;;;;10.35;5.18;;;-0.50;99.90;;;-0.96;100.00;101081.47;5253596;28;20041;-45
2024/01/19 04:35:54;;;;;;;14.25;5.00;;;-0.50;99.90;;;-0.94;100.00;101081.59;5251004;28;20422;-46
2024/01/19 04:38:27;;;;;;;14.52;5.35;;;-0.50;99.90;;;-0.91;100.00;101080.22;5239497;28;20504;-45
2024/01/19 04:40:59;;;;;;;11.57;5.38;;;-0.50;99.90;;;-0.89;100.00;101081.22;5238143;28;20045;-45
2024/01/19 04:43:33;;;;;;;16.10;5.95;;;-0.50;99.90;;;-0.88;100.00;101077.91;5237053;28;20063;-45
2024/01/19 04:46:06;;;;;;;9.40;4.43;;;-0.40;99.90;;;-0.84;100.00;101081.63;5245284;28;20059;-46
2024/01/19 04:48:38;;;;;;;9.93;5.45;;;-0.40;99.90;;;-0.82;100.00;101088.66;5238700;28;20093;-46
2024/01/19 04:51:13;;;;;;;9.00;4.75;;;-0.40;99.90;;;-0.78;100.00;101084.72;5235968;28;20048;-45
2024/01/19 04:53:46;;;;;;;9.10;3.55;;;-0.40;99.90;;;-0.73;100.00;101082.50;5242821;28;20059;-46
2024/01/19 04:56:18;;;;;;;7.97;4.15;;;-0.30;99.90;;;-0.70;100.00;101077.66;5253551;28;20526;-45
2024/01/19 04:58:52;;;;;;;6.10;3.97;;;-0.30;99.90;;;-0.71;100.00;101086.13;5233908;28;20053;-46
2024/01/19 05:01:24;;;;;;;5.57;2.38;;;-0.30;99.90;;;-0.66;100.00;101089.94;5245628;28;20059;-45
2024/01/19 05:03:56;;;;;;;8.23;5.43;;;-0.20;99.90;;;-0.62;100.00;101089.44;5238770;28;20044;-47
2024/01/19 05:06:29;;;;;;;8.27;3.70;;;-0.20;99.90;;;-0.60;100.00;101093.00;5238289;28;20408;-46
2024/01/19 05:09:01;;;;;;;4.63;2.97;;;-0.20;99.90;;;-0.60;100.00;101095.56;5231414;28;20393;-45
2024/01/19 05:11:33;;;;;;;13.65;3.60;;;-0.20;99.90;;;-0.59;100.00;101097.34;5243422;28;20049;-46
2024/01/19 05:14:07;;;;;;;8.35;3.60;;;-0.20;99.90;;;-0.56;100.00;101092.50;5240521;28;20051;-45
2024/01/19 05:16:39;;;;;;;5.32;3.17;;;-0.10;99.90;;;-0.54;100.00;101101.19;5244371;28;20140;-46
2024/01/19 05:19:15;;;;;;;3.72;1.70;;;-0.20;99.90;;;-0.53;100.00;101097.88;5253980;28;20055;-46
2024/01/19 05:21:48;;;;;;;6.50;2.85;;;-0.10;99.90;;;-0.50;100.00;101100.69;5255036;28;20469;-45
2024/01/19 05:24:20;;;;;;;7.75;3.75;;;-0.10;99.90;;;-0.50;100.00;101118.63;5258382;28;20072;-47
2024/01/19 05:26:52;;;;;;;5.13;2.03;;;-0.10;99.90;;;-0.49;100.00;101114.41;5240859;28;20419;-46
2024/01/19 05:29:27;;;;;;;7.60;3.97;;;-0.10;99.90;;;-0.50;100.00;101117.72;5235088;28;20045;-45
2024/01/19 05:31:59;;;;;;;4.93;3.53;;;-0.10;99.90;;;-0.52;100.00;101115.06;5244478;28;20065;-45
2024/01/19 05:34:31;;;;;;;5.32;2.83;;;-0.10;99.90;;;-0.51;100.00;101114.28;5245393;28;20053;-45
2024/01/19 05:37:07;;;;;;;7.82;3.80;;;-0.10;99.90;;;-0.51;100.00;101111.72;5231540;28;20090;-45
2024/01/19 05:39:39;;;;;;;4.07;2.60;;;-0.10;99.90;;;-0.50;100.00;101118.63;5242384;28;20051;-45
2024/01/19 05:42:11;;;;;;;4.82;3.33;;;-0.10;99.90;;;-0.49;100.00;101117.84;5246358;28;20045;-45
2024/01/19 05:44:45;;;;;;;2.80;2.08;;;-0.10;99.90;;;-0.46;100.00;101122.31;5236930;28;20051;-46
2024/01/19 05:47:18;;;;;;;6.63;2.70;;;0.00;99.90;;;-0.44;100.00;101123.38;5228707;28;20592;-46
2024/01/19 05:49:50;;;;;;;5.03;2.35;;;-0.10;99.90;;;-0.46;100.00;101115.53;5237113;28;20139;-45
2024/01/19 05:52:23;;;;;;;5.30;2.67;;;0.00;99.90;;;-0.45;100.00;101122.47;5233007;28;20155;-45
2024/01/19 05:54:55;;;;;;;5.32;2.30;;;0.00;99.90;;;-0.45;100.00;101121.59;5237754;28;20499;-46
2024/01/19 05:57:27;;;;;;;5.32;2.95;;;0.00;99.90;;;-0.43;100.00;101131.19;5237138;28;20056;-45
2024/01/19 06:00:01;;;;;;;5.78;2.42;;;0.00;99.90;;;-0.41;100.00;101134.75;5232843;28;20052;-46
2024/01/19 06:02:43;;;;;;;4.47;2.80;;;0.00;99.90;;;-0.42;100.00;101143.22;5240291;28;20053;-46
2024/01/19 06:05:16;;;;;;;5.07;2.47;;;0.00;99.90;;;-0.40;100.00;101151.91;5250056;28;20055;-46
2024/01/19 06:07:49;;;;;;;7.97;2.58;;;0.00;99.90;;;-0.38;100.00;101154.63;5236395;28;20528;-46
2024/01/19 06:10:21;;;;;;;3.75;1.95;;;0.10;99.90;;;-0.38;100.00;101150.41;5248922;28;20411;-46
2024/01/19 06:12:53;;;;;;;5.53;2.78;;;0.00;99.90;;;-0.38;100.00;101158.09;5245930;28;20049;-45
2024/01/19 06:15:27;;;;;;;4.13;2.92;;;0.00;99.90;;;-0.34;100.00;101165.22;5236754;28;20044;-45
2024/01/19 06:18:00;;;;;;;8.18;3.25;;;0.10;99.90;;;-0.30;100.00;101156.16;5238313;28;20254;-46
2024/01/19 06:20:32;;;;;;;6.97;3.13;;;0.10;99.90;;;-0.27;100.00;101154.72;5236132;28;20419;-46
2024/01/19 06:23:07;;;;;;;4.70;3.75;;;0.20;99.90;;;-0.24;100.00;101158.34;5230378;28;20594;-45
2024/01/19 06:25:41;;;;;;;;;;;0.10;99.90;;;-0.24;100.00;101166.91;5254202;28;20059;-46
2024/01/19 06:28:13;;;;;;;3.38;1.95;;;0.20;99.90;;;-0.23;100.00;101173.81;5236612;28;19974;-46
2024/01/19 06:30:47;;;;;;;6.43;2.97;;;0.20;99.90;;;-0.22;100.00;101177.28;5245547;28;20052;-45
2024/01/19 06:33:20;;;;;;;6.20;3.08;;;0.20;99.90;;;-0.21;100.00;101181.63;5232944;28;20053;-45
2024/01/19 06:35:52;;;;;;;5.55;2.70;;;0.20;99.90;;;-0.19;100.00;101182.69;5233530;28;20045;-46
2024/01/19 06:38:24;;;;;;;2.42;1.83;;;0.20;99.90;;;-0.17;100.00;101184.59;5226366;28;20059;-46
2024/01/19 06:40:57;;;;;;;4.38;2.13;;;0.30;99.90;;;-0.15;100.00;101195.84;5253710;28;20045;-46
2024/01/19 06:43:32;;;;;;;6.68;3.15;;;0.20;99.90;;;-0.11;100.00;101200.47;5247713;28;20099;-46
2024/01/19 06:46:07;;;;;;;6.78;2.40;;;0.30;99.90;;;-0.06;100.00;101193.19;5247513;28;20059;-46
2024/01/19 06:48:39;;;;;;;7.22;2.88;;;0.30;99.90;;;-0.06;100.00;101201.75;5235185;28;20063;-46
2024/01/19 06:51:17;;;;;;;8.00;3.45;;;0.30;99.90;;;-0.05;100.00;101200.09;5242955;28;20045;-46
2024/01/19 06:53:49;;;;;;;2.47;2.13;;;0.40;99.90;;;-0.04;100.00;101204.44;5256196;28;20047;-46
2024/01/19 06:56:21;;;;;;;3.85;2.40;;;0.40;99.90;;;-0.03;100.00;101208.81;5254828;28;20045;-46
2024/01/19 06:58:54;;;;;;;3.63;2.25;;;0.40;99.90;;;-0.03;100.00;101216.50;5190846;28;138057;-45
2024/01/19 07:01:28;;;;;;;8.23;3.08;;;0.40;99.90;;;-0.01;100.00;101220.06;5235752;28;20389;-46
2024/01/19 07:04:01;;;;;;;8.60;4.40;;;0.40;99.90;;;0.01;100.00;101225.34;5246036;28;20507;-46
2024/01/19 07:06:33;;;;;;;7.13;2.38;;;0.40;99.90;;;0.01;100.00;101227.91;5236989;28;20053;-45
2024/01/19 07:09:07;;;;;;;5.20;1.98;;;0.40;99.90;;;0.02;100.00;101238.28;5247547;28;20122;-46
2024/01/19 07:11:39;;;;;;;6.57;3.72;;;0.40;99.90;;;0.04;100.00;101243.53;5247449;28;20053;-45
2024/01/19 07:14:11;;;;;;;6.28;2.60;;;0.40;99.90;;;0.05;100.00;101240.19;5223914;28;20048;-46
2024/01/19 07:16:45;;;;;;;7.63;3.78;;;0.40;99.90;;;0.06;100.00;101248.00;5244158;28;20079;-46
2024/01/19 07:19:17;;;;;;;3.15;2.50;;;0.50;99.90;;;0.06;100.00;101253.13;5238618;28;20056;-46
2024/01/19 07:21:50;;;;;;;4.97;3.22;;;0.50;99.90;;;0.07;100.00;101259.19;5242540;28;20133;-46
2024/01/19 07:24:22;;;;;;;6.15;2.83;;;0.50;99.90;;;0.06;100.00;101265.94;5240319;28;20051;-47
2024/01/19 07:26:55;;;;;;;6.85;2.72;;;0.50;99.90;;;0.09;100.00;101273.91;5247747;28;20045;-46
2024/01/19 07:29:31;;;;;;;6.53;3.10;;;0.50;99.90;;;0.14;100.00;101276.88;5237465;28;20098;-46
2024/01/19 07:32:06;;;;;;;5.93;2.97;;;0.50;99.90;;;0.16;100.00;101276.22;5243921;28;20163;-45
2024/01/19 07:34:39;;;;;;;7.80;1.98;;;0.50;99.90;;;0.19;100.00;101280.69;5236718;28;20086;-46
2024/01/19 07:37:11;;;;;;;4.05;2.45;;;0.60;99.90;;;0.23;100.00;101287.88;5248278;28;20049;-45
2024/01/19 07:39:44;;;;;;;3.47;1.83;;;0.60;99.90;;;0.25;100.00;101279.53;5230577;28;20404;-45
2024/01/19 07:42:16;;;;;;;3.17;2.15;;;0.60;99.90;;;0.28;100.00;101284.03;5246507;28;20048;-45
2024/01/19 07:44:48;;;;;;;6.38;1.67;;;0.60;99.90;;;1.08;100.00;101294.00;5245880;28;20059;-47
2024/01/19 07:47:23;;;;;;;4.75;2.22;;;1.20;99.90;;;1.80;100.00;101287.75;5229187;28;20049;-45
2024/01/19 07:49:55;;;;;;;8.40;3.63;;;1.80;99.90;;;1.57;100.00;101297.94;5246528;28;20132;-46
2024/01/19 07:52:27;;;;;;;6.93;3.28;;;1.80;99.90;;;1.27;100.00;101299.84;5238726;28;20064;-44
2024/01/19 07:55:00;;;;;;;6.78;2.72;;;1.70;99.90;;;1.03;100.00;101300.44;5250690;28;20048;-45
2024/01/19 07:57:32;;;;;;;11.82;3.65;;;1.50;99.90;;;0.88;100.00;101302.69;5245594;28;20047;-46
2024/01/19 08:00:06;;;;;;;7.68;2.88;;;1.40;99.90;;;0.75;100.00;101308.47;5245400;28;20136;-45
2024/01/19 08:02:41;;;;;;;6.28;3.72;;;1.30;99.90;;;0.67;100.00;101313.75;5250549;28;20048;-45
2024/01/19 08:05:14;;;;;;;9.27;2.83;;;1.10;99.90;;;0.61;100.00;101321.84;5244133;28;20049;-45
2024/01/19 08:07:46;;;;;;;5.78;2.58;;;1.10;99.90;;;0.57;100.00;101321.47;5236325;28;20075;-45
2024/01/19 08:10:19;;;;;;;9.32;2.97;;;1.00;99.90;;;0.54;100.00;101328.16;5226961;28;20049;-46
2024/01/19 08:12:52;;;;;;;7.75;3.25;;;0.90;99.90;;;0.53;100.00;101330.59;5240440;28;20045;-45
2024/01/19 08:15:28;;;;;;;8.63;2.65;;;0.90;99.90;;;0.51;100.00;101337.25;5250336;28;20136;-45
2024/01/19 08:18:02;;;;;;;9.52;3.70;;;0.90;99.90;;;0.50;100.00;101340.56;5252056;28;20380;-45
2024/01/19 08:20:34;;;;;;;3.92;2.45;;;0.80;99.90;;;0.49;100.00;101343.91;5234922;28;20049;-45
2024/01/19 08:23:06;;;;;;;5.45;2.40;;;0.90;99.90;;;0.48;100.00;101349.81;5240711;28;20810;-45
2024/01/19 08:25:39;;;;;;;3.72;2.50;;;0.80;99.90;;;0.51;100.00;101357.75;5243335;28;20503;-45
2024/01/19 08:28:11;;;;;;;3.92;2.42;;;0.90;99.90;;;0.55;100.00;101364.94;5249251;28;20074;-45
2024/01/19 08:30:44;;;;;;;6.30;2.85;;;0.90;99.90;;;0.55;100.00;101359.81;5245870;28;20553;-45
2024/01/19 08:33:17;;;;;;;5.43;2.33;;;0.90;99.90;;;0.54;100.00;101369.19;5235603;28;20384;-45
2024/01/19 08:35:50;;;;;;;8.02;2.88;;;0.90;99.90;;;0.60;100.00;101363.69;5250327;28;20131;-45
2024/01/19 08:38:23;;;;;;;7.05;3.33;;;0.90;99.90;;;0.68;100.00;101378.03;5248891;28;20040;-46
2024/01/19 08:40:55;;;;;;;4.40;2.25;;;1.00;99.90;;;0.77;100.00;101383.03;5245602;28;20052;-46
2024/01/19 08:43:27;;;;;;;5.93;4.00;;;1.00;99.90;;;0.80;100.00;101383.28;5247533;28;20516;-45
2024/01/19 08:46:00;;;;;;;6.30;3.10;;;1.10;99.90;;;0.82;100.00;101385.19;5241047;28;20519;-45
2024/01/19 08:48:34;;;;;;;7.25;2.42;;;1.10;99.90;;;0.82;100.00;101390.34;5225338;28;20053;-45
2024/01/19 08:51:06;;;;;;;7.32;3.53;;;1.10;99.90;;;0.80;100.00;101396.13;5248392;28;20051;-46
2024/01/19 08:53:39;;;;;;;10.45;4.13;;;1.10;99.90;;;0.82;100.00;101407.41;5232462;28;20057;-45
2024/01/19 08:56:11;;;;;;;5.35;3.03;;;1.10;99.90;;;0.90;100.00;101401.22;5242669;28;20049;-44
2024/01/19 08:58:44;;;;;;;8.27;2.92;;;1.20;99.90;;;0.95;100.00;101406.75;5243651;28;20411;-44
2024/01/19 09:01:19;;;;;;;7.47;2.90;;;1.20;99.90;;;0.97;100.00;101405.19;5242659;28;20044;-44
2024/01/19 09:03:53;;;;;;;4.82;3.30;;;1.30;99.90;;;1.11;100.00;101422.66;5240287;28;20041;-46
2024/01/19 09:06:25;;;;;;;9.40;3.05;;;1.30;99.90;;;1.29;100.00;101408.75;5245793;28;20056;-46
2024/01/19 09:09:01;;;;;;;12.43;4.75;;;1.50;99.90;;;1.44;100.00;101419.38;5234100;28;20049;-45
2024/01/19 09:11:34;;;;;;;4.18;2.63;;;1.60;99.90;;;1.53;100.00;101419.22;5243241;28;20045;-45
2024/01/19 09:14:09;;;;;;;5.95;4.05;;;1.70;99.90;;;1.58;100.00;101423.06;5241243;28;20052;-45
2024/01/19 09:16:43;;;;;;;6.03;2.92;;;1.80;99.90;;;1.63;100.00;101422.66;5246295;28;20052;-46
2024/01/19 09:19:17;;;;;;;12.48;3.83;;;1.80;99.90;;;1.65;100.00;101435.63;5239829;28;20708;-45
2024/01/19 09:21:52;;;;;;;6.22;2.75;;;1.80;99.90;;;1.70;100.00;101444.59;5242811;28;20079;-45
2024/01/19 09:24:25;;;;;;;6.82;3.65;;;1.90;99.90;;;1.74;100.00;101449.19;5247374;28;20595;-45
2024/01/19 09:26:57;;;;;;;10.63;2.85;;;2.00;99.90;;;1.94;100.00;101455.94;5241381;28;20049;-46
2024/01/19 09:29:32;;;;;;;6.47;3.05;;;2.10;99.90;;;2.16;100.00;101458.56;5238280;28;20132;-46
2024/01/19 09:32:08;;;;;;;;;;;2.30;99.90;;;2.38;100.00;101451.72;5239991;28;20057;-47
2024/01/19 09:34:44;;;;;;;3.55;3.00;;;2.40;99.90;;;2.44;100.00;101449.63;5253491;28;19932;-47
2024/01/19 09:37:17;;;;;;;9.68;3.75;;;2.70;99.90;;;2.46;100.00;101460.03;5243812;28;20045;-46
2024/01/19 09:39:52;;;;;;;9.25;5.20;;;2.70;99.90;;;2.43;100.00;101463.28;5247473;28;20051;-46
2024/01/19 09:42:28;;;;;;;10.88;5.18;;;2.70;99.90;;;2.44;100.00;101477.94;5248541;28;20056;-46
2024/01/19 09:45:04;;;;;;;5.53;3.10;;;2.70;99.90;;;2.37;100.00;101483.38;5239063;28;20053;-46
2024/01/19 09:47:55;;;;;;;10.65;4.57;;;2.60;99.90;;;2.26;100.00;101498.75;5243927;28;20403;-47
2024/01/19 09:50:36;;;;;;;10.00;3.97;;;2.60;99.90;;;2.18;100.00;101508.44;5239667;28;20048;-46
2024/01/19 09:53:22;;;;;;;11.50;3.53;;;2.50;99.90;;;2.13;100.00;101512.31;5232217;28;20079;-47
2024/01/19 09:55:54;;;;;;;12.95;4.40;;;2.40;99.90;;;2.09;100.00;101518.00;5242970;28;20102;-46
2024/01/19 09:58:27;;;;;;;11.90;3.95;;;2.40;99.90;;;2.08;100.00;101526.47;5236118;28;20045;-47
2024/01/19 10:01:02;;;;;;;7.63;4.00;;;2.30;99.90;;;2.06;100.00;101523.78;5242950;28;20045;-46
2024/01/19 10:03:36;;;;;;;8.45;3.45;;;2.30;99.90;;;2.06;100.00;101523.78;5246172;28;20040;-46
2024/01/19 10:06:12;;;;;;;8.80;4.00;;;2.30;99.90;;;2.13;100.00;101530.31;5240540;28;20045;-46
2024/01/19 10:08:44;;;;;;;11.40;4.65;;;2.30;99.90;;;2.29;100.00;101532.44;5240115;28;20057;-46
2024/01/19 10:11:17;;;;;;;8.30;3.78;;;2.50;99.90;;;2.53;100.00;101533.47;5234405;28;20115;-46
2024/01/19 10:13:49;;;;;;;14.10;4.55;;;2.60;99.90;;;2.81;100.00;101537.44;5238799;28;20053;-46
2024/01/19 10:16:22;;;;;;;8.95;4.35;;;2.80;99.90;;;2.97;100.00;101545.53;5241925;28;20503;-46
2024/01/19 10:18:54;;;;;;;12.80;4.80;;;3.00;99.90;;;2.96;100.00;101548.91;5241835;28;20056;-47
2024/01/19 10:21:31;;;;;;;13.50;5.45;;;3.00;99.90;;;2.87;100.00;101558.50;5236792;28;20050;-46
2024/01/19 10:24:14;;;;;;;11.75;4.68;;;3.00;99.90;;;2.80;100.00;101557.88;5252977;28;20484;-46
2024/01/19 10:26:52;;;;;;;12.30;3.17;;;3.00;99.90;;;2.78;100.00;101557.78;5237052;28;20049;-46
2024/01/19 10:29:25;;;;;;;6.57;3.80;;;3.00;99.90;;;2.76;100.00;101563.59;5262574;28;20609;-46
2024/01/19 10:31:57;;;;;;;7.72;3.67;;;2.90;99.90;;;2.65;100.00;101568.78;5234302;28;20045;-46
2024/01/19 10:34:30;;;;;;;9.68;4.72;;;2.90;99.90;;;2.54;100.00;101571.28;5238184;28;20543;-47
2024/01/19 10:37:04;;;;;;;11.20;5.53;;;2.80;99.90;;;2.45;100.00;101569.78;5238763;28;20486;-47